createdAt,value
2022-08-17T00:03:28.835Z,64.5
2022-08-17T00:09:22.875Z,64.7
2022-08-17T00:15:15.588Z,65
2022-08-17T00:21:12.208Z,66
2022-08-17T00:28:11.992Z,65.1
2022-08-17T00:34:09.299Z,65
2022-08-17T00:40:00.785Z,64.9
2022-08-17T00:45:51.329Z,65.7
2022-08-17T00:51:43.592Z,65.5
2022-08-17T00:57:33.935Z,67.8
2022-08-17T01:03:26.675Z,65.5
2022-08-17T01:09:17.887Z,66
2022-08-17T01:15:07.566Z,66.3
2022-08-17T01:20:57.310Z,65.7
2022-08-17T01:26:46.632Z,65.7
2022-08-17T01:32:38.061Z,66.2
2022-08-17T01:38:28.950Z,67.2
2022-08-17T01:44:19.092Z,67.3
2022-08-17T01:50:08.040Z,66.7
2022-08-17T01:55:57.126Z,67.4
2022-08-17T02:01:49.266Z,68.5
2022-08-17T02:08:03.053Z,68.8
2022-08-17T02:14:21.929Z,68.7
2022-08-17T02:20:13.321Z,68.8
2022-08-17T02:26:30.396Z,69.9
2022-08-17T02:32:29.224Z,72.2
2022-08-17T02:38:17.805Z,69.8
2022-08-17T02:44:07.651Z,69.4
2022-08-17T02:49:57.822Z,70.2
2022-08-17T02:55:48.864Z,70.5
2022-08-17T03:01:46.398Z,70.6
2022-08-17T03:07:35.242Z,70.3
2022-08-17T03:13:26.286Z,68.6
2022-08-17T03:19:17.179Z,70.8
2022-08-17T03:25:12.578Z,70
2022-08-17T03:31:11.802Z,71
2022-08-17T03:37:02.065Z,68.9
2022-08-17T03:42:53.278Z,69.5
2022-08-17T03:48:47.593Z,70.3
2022-08-17T03:54:40.584Z,67.6
2022-08-17T04:00:31.883Z,66.9
2022-08-17T04:06:31.386Z,66.1
2022-08-17T04:12:24.611Z,66.7
2022-08-17T04:18:17.182Z,66.3
2022-08-17T04:24:08.824Z,66.2
2022-08-17T04:29:59.645Z,65.6
2022-08-17T04:35:53.109Z,65.6
2022-08-17T04:41:45.036Z,65.9
2022-08-17T04:47:37.184Z,65.8
2022-08-17T04:53:28.131Z,65.8
2022-08-17T04:59:19.817Z,66.4
2022-08-17T05:05:11.971Z,66.2
2022-08-17T05:11:05.178Z,66.2
2022-08-17T05:16:56.428Z,66.4
2022-08-17T05:23:02.355Z,66.7
2022-08-17T05:28:53.852Z,67.8
2022-08-17T05:34:50.143Z,69.4
2022-08-17T05:40:45.518Z,67.8
2022-08-17T05:46:37.161Z,66.4
2022-08-17T05:52:31.328Z,68.5
2022-08-17T05:58:22.897Z,69.3
2022-08-17T06:04:13.697Z,67.4
2022-08-17T06:10:06.894Z,67.9
2022-08-17T06:15:58.279Z,66.8
2022-08-17T06:21:49.663Z,67.9
2022-08-17T06:27:41.616Z,67
2022-08-17T06:33:34.655Z,65.2
2022-08-17T06:39:28.092Z,66.5
2022-08-17T06:45:20.600Z,64.5
2022-08-17T06:51:12.181Z,64.6
2022-08-17T06:57:04.181Z,64.8
2022-08-17T07:02:55.909Z,65.3
2022-08-17T07:08:48.306Z,65.9
2022-08-17T07:14:39.071Z,65.3
2022-08-17T07:20:30.724Z,65.2
2022-08-17T07:26:22.092Z,65.5
2022-08-17T07:32:15.497Z,65
2022-08-17T07:38:27.116Z,64
2022-08-17T07:44:17.244Z,65
2022-08-17T07:50:11.168Z,66.4
2022-08-17T07:56:02.589Z,64.9
2022-08-17T08:02:01.026Z,64.1
2022-08-17T08:07:56.750Z,64.9
2022-08-17T08:13:48.427Z,63.8
2022-08-17T08:19:44.431Z,64
2022-08-17T08:25:42.733Z,65.1
2022-08-17T08:31:44.129Z,63.3
2022-08-17T08:37:46.766Z,61.9
2022-08-17T08:43:37.403Z,62.2
2022-08-17T08:50:04.639Z,63
2022-08-17T08:56:22.113Z,63.1
2022-08-17T09:02:14.182Z,63.5
2022-08-17T09:08:08.294Z,63.2
2022-08-17T09:14:02.221Z,62.7
2022-08-17T09:20:28.916Z,64.4
2022-08-17T09:26:20.016Z,64.2
2022-08-17T09:32:12.928Z,63.9
2022-08-17T09:38:05.601Z,63.6
2022-08-17T09:43:56.172Z,63.2
2022-08-17T09:49:48.727Z,62.6
2022-08-17T09:55:40.766Z,62.2
2022-08-17T10:01:32.683Z,61.7
2022-08-17T10:07:23.305Z,60.6
2022-08-17T10:13:15.352Z,60.4
2022-08-17T10:19:13.315Z,60
2022-08-17T10:25:30.174Z,59.2
2022-08-17T10:31:41.507Z,58.6
2022-08-17T10:37:33.188Z,58.3
2022-08-17T10:43:26.602Z,56.7
2022-08-17T10:49:17.106Z,57.1
2022-08-17T10:55:08.496Z,57.1
2022-08-17T11:01:00.773Z,57.9
2022-08-17T11:06:53.190Z,56.8
2022-08-17T11:12:44.237Z,57.3
2022-08-17T11:18:36.473Z,57.5
2022-08-17T11:24:28.609Z,58
2022-08-17T11:30:18.895Z,57.5
2022-08-17T11:36:16.809Z,56.6
2022-08-17T11:42:08.704Z,55.7
2022-08-17T11:48:29.087Z,55.6
2022-08-17T11:54:38.664Z,55.5
2022-08-17T12:00:38.735Z,56.3
2022-08-17T12:06:38.728Z,55.5
2022-08-17T12:12:41.984Z,54.9
2022-08-17T12:18:51.213Z,54.4
2022-08-17T12:24:47.453Z,55.2
2022-08-17T12:31:04.189Z,55.5
2022-08-17T12:37:19.990Z,54.6
2022-08-17T12:43:16.120Z,55.1
2022-08-17T12:49:07.476Z,55.4
2022-08-17T12:54:59.121Z,54.9
2022-08-17T13:00:49.675Z,54.4
2022-08-17T13:06:41.049Z,53.9
2022-08-17T13:12:32.552Z,53.6
2022-08-17T13:18:25.356Z,53.4
2022-08-17T13:24:18.056Z,54.1
2022-08-17T13:30:09.598Z,54.7
2022-08-17T13:35:59.249Z,54.9
2022-08-17T13:41:52.618Z,54.7
2022-08-17T13:47:43.136Z,55.4
2022-08-17T13:53:34.695Z,55.3
2022-08-17T13:59:56.004Z,55.2
2022-08-17T14:05:44.966Z,55.6
2022-08-17T14:11:35.756Z,55.5
2022-08-17T14:17:26.015Z,55.2
2022-08-17T14:23:21.443Z,55
2022-08-17T14:29:17.317Z,54.9
2022-08-17T14:35:08.000Z,54.3
2022-08-17T14:40:59.715Z,54.5
2022-08-17T14:46:50.719Z,54.5
2022-08-17T14:52:43.206Z,55.6
2022-08-17T14:58:34.028Z,55.5
2022-08-17T15:04:28.266Z,55.4
2022-08-17T15:10:19.378Z,55.7
2022-08-17T15:16:12.643Z,55.6
2022-08-17T15:22:04.423Z,55.7
2022-08-17T15:27:55.540Z,56.2
2022-08-17T15:33:46.901Z,55.4
2022-08-17T15:39:39.205Z,54.6
2022-08-17T15:45:30.325Z,54.8
2022-08-17T15:51:21.276Z,54.4
2022-08-17T15:57:12.503Z,54.4
2022-08-17T16:04:01.944Z,53.1
2022-08-17T16:10:20.757Z,51.8
2022-08-17T16:16:23.242Z,52.4
2022-08-17T16:22:13.892Z,51.1
2022-08-17T16:28:06.152Z,51.1
2022-08-17T16:34:18.734Z,49.2
2022-08-17T16:40:08.945Z,50
2022-08-17T16:45:59.629Z,50
2022-08-17T16:51:49.652Z,49.3
2022-08-17T16:57:50.918Z,49.3
2022-08-17T17:03:40.985Z,49
2022-08-17T17:09:32.318Z,49.1
2022-08-17T17:15:24.000Z,49.1
2022-08-17T17:21:14.445Z,48.8
2022-08-17T17:27:09.160Z,49.8
2022-08-17T17:32:58.782Z,50
2022-08-17T17:38:49.102Z,50.1
2022-08-17T17:44:39.468Z,50.4
2022-08-17T17:50:35.399Z,51.3
2022-08-17T17:56:45.601Z,52.1
2022-08-17T18:02:34.436Z,52.8
2022-08-17T18:08:34.667Z,52.9
2022-08-17T18:14:24.591Z,53.3
2022-08-17T18:20:15.537Z,53.6
2022-08-17T18:26:21.203Z,54.5
2022-08-17T18:32:18.323Z,55.3
2022-08-17T18:38:08.633Z,55.4
2022-08-17T18:44:07.920Z,55.8
2022-08-17T18:49:58.193Z,56.8
2022-08-17T18:55:50.485Z,57.1
2022-08-17T19:01:56.212Z,58.4
2022-08-17T19:08:12.913Z,59.1
2022-08-17T19:14:02.879Z,60
2022-08-17T19:19:55.357Z,60.6
2022-08-17T19:25:45.611Z,61.3
2022-08-17T19:31:39.625Z,61.8
2022-08-17T19:37:30.387Z,61.9
2022-08-17T19:43:20.588Z,62.7
2022-08-17T19:49:11.204Z,63
2022-08-17T19:55:02.106Z,62.8
2022-08-17T20:00:52.699Z,63.4
2022-08-17T20:06:43.190Z,63.4
2022-08-17T20:12:34.874Z,63.7
2022-08-17T20:18:25.222Z,65.1
2022-08-17T20:24:16.387Z,64
2022-08-17T20:30:07.137Z,66.2
2022-08-17T20:35:59.178Z,66.4
2022-08-17T20:41:49.831Z,66.7
2022-08-17T20:54:27.826Z,67
2022-08-17T21:00:17.900Z,67.6
2022-08-17T21:12:10.705Z,69.3
2022-08-17T21:18:01.113Z,68.7
2022-08-17T21:23:54.083Z,70.6
2022-08-17T21:29:44.926Z,69.6
2022-08-17T21:35:43.573Z,71.4
2022-08-17T21:41:34.836Z,70.8
2022-08-17T21:47:25.110Z,71.5
2022-08-17T21:53:14.737Z,71
2022-08-17T21:59:06.766Z,70.7
2022-08-17T22:04:57.269Z,70.3
2022-08-17T22:10:48.114Z,71.3
2022-08-17T22:16:39.027Z,72
2022-08-17T22:22:33.982Z,72.7
2022-08-17T22:28:25.256Z,71.4
2022-08-17T22:34:19.220Z,72
2022-08-17T22:40:12.481Z,72.8
2022-08-17T22:46:03.810Z,73.5
2022-08-17T22:51:54.577Z,73.4
2022-08-17T22:57:46.408Z,73.5
2022-08-17T23:03:37.979Z,75.7
2022-08-17T23:09:29.527Z,75.2
2022-08-17T23:15:20.819Z,75.2
2022-08-17T23:21:25.739Z,74.7
2022-08-17T23:27:21.407Z,74.8
2022-08-17T23:33:12.355Z,75.1
2022-08-17T23:39:02.816Z,75.7
2022-08-17T23:44:54.080Z,75.7
2022-08-17T23:50:44.916Z,76
2022-08-17T23:56:35.347Z,77.1
